North Barrington, Illinois
Current Conditions -  °F | °C
As of 2:07 PM on Monday 24 Nov 2014 (Local Time) from KPWK Reporting Station
Light Snow Light Snow  
Wind Chill: 17°   Ceiling: 2300
Heat Index: 31°   Visibility: 3mi
Dew Point: 26°   Wind: 24mph
Humidity: 82%   Direction: 250°WSW
Pressure: 29.43"   Gusts: 33mph
Location:  42.1512°N, 88.1636°W
Report Text: KPWK 242007Z 25021G29KT 3SM -SN SCT014 OVC023 M01/M03 A2943 RMK AO2 PK WND 24029/2007 PRESRR P0000 T10061033
Loading
Personal Weather Stations






























Interactive Weather Map New forecast layout! Learn more

10-Day Weather Forecast

Advertisements
Track Severe Weather on mobile